KBAM/BAM METAR and TAF weather

Enter ICAO airport designator
Station Type Date Time Source
KBAM METAR 2020/03/31 22:15 UTC NOAA

KBAM 312215Z AUTO 24022G31KT 7SM BKN030 BKN038 OVC090 17/M03 A2991 RMK AO1


Station Type Date Time Source
KBAM Decoded METAR 2020/03/31 22:15 UTC NOAA

Station name not available
Mar 31, 2020 - 06:15 PM EDT / 2020.03.31 2215 UTC
Wind: from the WSW (240 degrees) at 25 MPH (22 KT) gusting to 36 MPH (31 KT):0
Visibility: 7 mile(s):0
Sky conditions: overcast
Temperature: 62 F (17 C)
Dew Point: 26 F (-3 C)
Relative Humidity: 25%
Pressure (altimeter): 29.91 in. Hg (1012 hPa)
ob: KBAM 312215Z AUTO 24022G31KT 7SM BKN030 BKN038 OVC090 17/M03 A2991 RMK AO1
cycle: 22

Station Type Date Time Source
KBAM TAF 2020/03/31 18:40 UTC NOAA

TAF KBAM 311738Z 3118/0118 23018G28KT P6SM SCT050 BKN100 BKN200
FM010300 28009KT P6SM FEW050 SCT100 BKN200
FM011300 VRB03KT P6SM BKN025 OVC035
FM011600 VRB04KT P6SM BKN015 OVC025

Example: see airport list